sensor_id;sensor_type;location;lat;lon;timestamp;pressure;altitude;pressure_sealevel;temperature;humidity
48872;BME280;36154;51.674;7.824;2023-08-17T00:01:44;101119.84;;;25.00;51.56
48872;BME280;36154;51.674;7.824;2023-08-17T00:04:09;101138.03;;;25.01;51.07
48872;BME280;36154;51.674;7.824;2023-08-17T00:06:35;101144.94;;;25.02;51.46
48872;BME280;36154;51.674;7.824;2023-08-17T00:09:00;101157.91;;;25.04;51.58
48872;BME280;36154;51.674;7.824;2023-08-17T00:11:25;101160.44;;;25.05;51.33
48872;BME280;36154;51.674;7.824;2023-08-17T00:13:51;101150.03;;;25.05;51.49
48872;BME280;36154;51.674;7.824;2023-08-17T00:16:16;101149.13;;;25.06;51.37
48872;BME280;36154;51.674;7.824;2023-08-17T00:18:42;101142.16;;;25.07;51.60
48872;BME280;36154;51.674;7.824;2023-08-17T00:21:07;101138.63;;;25.08;51.47
48872;BME280;36154;51.674;7.824;2023-08-17T00:23:32;101135.97;;;25.09;51.51
48872;BME280;36154;51.674;7.824;2023-08-17T00:26:01;101123.72;;;25.12;51.30
48872;BME280;36154;51.674;7.824;2023-08-17T00:28:26;101124.56;;;25.12;51.35
48872;BME280;36154;51.674;7.824;2023-08-17T00:30:52;101121.03;;;25.13;51.56
48872;BME280;36154;51.674;7.824;2023-08-17T00:33:17;101121.03;;;25.13;51.57
48872;BME280;36154;51.674;7.824;2023-08-17T00:35:42;101127.09;;;25.14;51.41
48872;BME280;36154;51.674;7.824;2023-08-17T00:38:08;101131.41;;;25.15;51.50
48872;BME280;36154;51.674;7.824;2023-08-17T00:40:34;101123.59;;;25.15;51.13
48872;BME280;36154;51.674;7.824;2023-08-17T00:42:59;101144.47;;;25.15;51.47
48872;BME280;36154;51.674;7.824;2023-08-17T00:45:24;101135.66;;;25.17;51.29
48872;BME280;36154;51.674;7.824;2023-08-17T00:47:55;101130.44;;;25.17;51.60
48872;BME280;36154;51.674;7.824;2023-08-17T00:50:21;101133.03;;;25.17;51.45
48872;BME280;36154;51.674;7.824;2023-08-17T00:52:47;101131.41;;;25.15;51.29
48872;BME280;36154;51.674;7.824;2023-08-17T00:55:12;101130.53;;;25.14;51.43
48872;BME280;36154;51.674;7.824;2023-08-17T00:57:39;101128.81;;;25.15;51.34
48872;BME280;36154;51.674;7.824;2023-08-17T01:00:05;101140.09;;;25.15;51.31
48872;BME280;36154;51.674;7.824;2023-08-17T01:02:32;101140.91;;;25.16;51.53
48872;BME280;36154;51.674;7.824;2023-08-17T01:04:58;101142.63;;;25.17;51.73
48872;BME280;36154;51.674;7.824;2023-08-17T01:07:23;101141.72;;;25.18;51.69
48872;BME280;36154;51.674;7.824;2023-08-17T01:09:48;101136.41;;;25.19;51.76
48872;BME280;36154;51.674;7.824;2023-08-17T01:14:55;101141.56;;;25.21;51.52
48872;BME280;36154;51.674;7.824;2023-08-17T01:17:29;101149.41;;;25.21;51.58
48872;BME280;36154;51.674;7.824;2023-08-17T01:19:55;101144.19;;;25.21;51.39
48872;BME280;36154;51.674;7.824;2023-08-17T01:22:24;101149.34;;;25.22;51.12
48872;BME280;36154;51.674;7.824;2023-08-17T01:24:50;101154.56;;;25.22;51.25
48872;BME280;36154;51.674;7.824;2023-08-17T01:27:22;101147.59;;;25.23;51.25
48872;BME280;36154;51.674;7.824;2023-08-17T01:29:47;101147.59;;;25.23;51.37
48872;BME280;36154;51.674;7.824;2023-08-17T01:32:32;101141.53;;;25.22;51.19
48872;BME280;36154;51.674;7.824;2023-08-17T01:35:43;101142.38;;;25.23;51.06
48872;BME280;36154;51.674;7.824;2023-08-17T01:38:14;101126.75;;;25.23;51.00
48872;BME280;36154;51.674;7.824;2023-08-17T01:40:41;101129.34;;;25.23;51.15
48872;BME280;36154;51.674;7.824;2023-08-17T01:43:09;101123.19;;;25.24;50.99
48872;BME280;36154;51.674;7.824;2023-08-17T01:45:35;101112.78;;;25.24;51.54
48872;BME280;36154;51.674;7.824;2023-08-17T01:48:00;101118.84;;;25.24;51.36
48872;BME280;36154;51.674;7.824;2023-08-17T01:50:25;101106.72;;;25.23;51.53
48872;BME280;36154;51.674;7.824;2023-08-17T01:52:51;101108.44;;;25.24;51.38
48872;BME280;36154;51.674;7.824;2023-08-17T01:55:16;101113.63;;;25.24;51.13
48872;BME280;36154;51.674;7.824;2023-08-17T01:57:41;101107.56;;;25.24;51.14
48872;BME280;36154;51.674;7.824;2023-08-17T02:00:07;101098.00;;;25.24;51.28
48872;BME280;36154;51.674;7.824;2023-08-17T02:02:35;101099.66;;;25.25;51.26
48872;BME280;36154;51.674;7.824;2023-08-17T02:05:01;101101.44;;;25.25;51.16
48872;BME280;36154;51.674;7.824;2023-08-17T02:07:26;101103.22;;;25.24;51.31
48872;BME280;36154;51.674;7.824;2023-08-17T02:09:51;101108.44;;;25.24;51.19
48872;BME280;36154;51.674;7.824;2023-08-17T02:12:16;101109.25;;;25.25;51.46
48872;BME280;36154;51.674;7.824;2023-08-17T02:14:42;101099.66;;;25.25;51.43
48872;BME280;36154;51.674;7.824;2023-08-17T02:17:07;101094.50;;;25.24;51.39
48872;BME280;36154;51.674;7.824;2023-08-17T02:19:33;101081.47;;;25.24;51.33
48872;BME280;36154;51.674;7.824;2023-08-17T02:21:58;101072.75;;;25.25;51.16
48872;BME280;36154;51.674;7.824;2023-08-17T02:24:25;101069.38;;;25.23;51.00
48872;BME280;36154;51.674;7.824;2023-08-17T02:26:50;101071.16;;;25.21;51.25
48872;BME280;36154;51.674;7.824;2023-08-17T02:29:15;101061.78;;;25.17;50.82
48872;BME280;36154;51.674;7.824;2023-08-17T02:31:40;101067.91;;;25.16;51.10
48872;BME280;36154;51.674;7.824;2023-08-17T02:34:06;101066.22;;;25.15;50.92
48872;BME280;36154;51.674;7.824;2023-08-17T02:36:31;101071.44;;;25.15;51.24
48872;BME280;36154;51.674;7.824;2023-08-17T02:38:57;101075.78;;;25.14;51.14
48872;BME280;36154;51.674;7.824;2023-08-17T02:41:22;101076.72;;;25.13;50.85
48872;BME280;36154;51.674;7.824;2023-08-17T02:43:48;101088.00;;;25.14;51.18
48872;BME280;36154;51.674;7.824;2023-08-17T02:46:13;101083.59;;;25.14;51.00
48872;BME280;36154;51.674;7.824;2023-08-17T02:48:38;101089.69;;;25.15;51.08
48872;BME280;36154;51.674;7.824;2023-08-17T02:51:03;101084.47;;;25.15;50.70
48872;BME280;36154;51.674;7.824;2023-08-17T02:53:29;101087.09;;;25.15;50.99
48872;BME280;36154;51.674;7.824;2023-08-17T02:55:54;101093.97;;;25.16;51.65
48872;BME280;36154;51.674;7.824;2023-08-17T02:58:19;101083.56;;;25.16;50.98
48872;BME280;36154;51.674;7.824;2023-08-17T03:00:45;101079.19;;;25.16;50.83
48872;BME280;36154;51.674;7.824;2023-08-17T03:03:10;101074.81;;;25.17;51.24
48872;BME280;36154;51.674;7.824;2023-08-17T03:05:35;101068.72;;;25.18;51.08
48872;BME280;36154;51.674;7.824;2023-08-17T03:08:01;101067.00;;;25.17;51.18
48872;BME280;36154;51.674;7.824;2023-08-17T03:10:26;101062.75;;;25.14;50.68
48872;BME280;36154;51.674;7.824;2023-08-17T03:12:51;101061.97;;;25.12;50.93
48872;BME280;36154;51.674;7.824;2023-08-17T03:15:17;101061.19;;;25.10;50.95
48872;BME280;36154;51.674;7.824;2023-08-17T03:17:42;101062.09;;;25.09;50.89
48872;BME280;36154;51.674;7.824;2023-08-17T03:20:07;101058.72;;;25.07;51.12
48872;BME280;36154;51.674;7.824;2023-08-17T03:22:33;101042.22;;;25.06;50.85
48872;BME280;36154;51.674;7.824;2023-08-17T03:24:59;101050.06;;;25.06;50.50
48872;BME280;36154;51.674;7.824;2023-08-17T03:27:24;101050.09;;;25.05;51.13
48872;BME280;36154;51.674;7.824;2023-08-17T03:29:50;101052.78;;;25.03;51.04
48872;BME280;36154;51.674;7.824;2023-08-17T03:32:16;101053.69;;;25.02;51.00
48872;BME280;36154;51.674;7.824;2023-08-17T03:34:41;101055.38;;;25.03;51.04
48872;BME280;36154;51.674;7.824;2023-08-17T03:37:06;101064.09;;;25.02;51.21
48872;BME280;36154;51.674;7.824;2023-08-17T03:39:32;101067.53;;;25.04;50.86
48872;BME280;36154;51.674;7.824;2023-08-17T03:41:57;101068.34;;;25.05;50.69
48872;BME280;36154;51.674;7.824;2023-08-17T03:44:22;101066.59;;;25.05;50.83
48872;BME280;36154;51.674;7.824;2023-08-17T03:46:47;101058.78;;;25.05;50.68
48872;BME280;36154;51.674;7.824;2023-08-17T03:49:13;101063.94;;;25.07;50.66
48872;BME280;36154;51.674;7.824;2023-08-17T03:51:39;101069.13;;;25.07;51.12
48872;BME280;36154;51.674;7.824;2023-08-17T03:54:05;101070.84;;;25.08;51.02
48872;BME280;36154;51.674;7.824;2023-08-17T03:56:30;101067.38;;;25.07;50.96
48872;BME280;36154;51.674;7.824;2023-08-17T03:58:55;101078.59;;;25.09;50.81
48872;BME280;36154;51.674;7.824;2023-08-17T04:01:20;101073.41;;;25.09;50.85
48872;BME280;36154;51.674;7.824;2023-08-17T04:03:46;101073.41;;;25.09;50.75
48872;BME280;36154;51.674;7.824;2023-08-17T04:06:11;101074.22;;;25.10;51.03
48872;BME280;36154;51.674;7.824;2023-08-17T04:08:37;101068.19;;;25.09;50.85
48872;BME280;36154;51.674;7.824;2023-08-17T04:11:03;101075.06;;;25.10;50.68
48872;BME280;36154;51.674;7.824;2023-08-17T04:13:28;101069.00;;;25.10;50.89
48872;BME280;36154;51.674;7.824;2023-08-17T04:15:54;101077.69;;;25.10;50.64
48872;BME280;36154;51.674;7.824;2023-08-17T04:18:19;101080.28;;;25.10;50.87
48872;BME280;36154;51.674;7.824;2023-08-17T04:20:44;101080.28;;;25.10;50.53
48872;BME280;36154;51.674;7.824;2023-08-17T04:23:09;101075.06;;;25.10;50.57
48872;BME280;36154;51.674;7.824;2023-08-17T04:25:35;101080.28;;;25.10;50.64
48872;BME280;36154;51.674;7.824;2023-08-17T04:28:00;101080.28;;;25.10;50.88
48872;BME280;36154;51.674;7.824;2023-08-17T04:30:25;101082.94;;;25.09;50.43
48872;BME280;36154;51.674;7.824;2023-08-17T04:32:50;101082.13;;;25.08;50.51
48872;BME280;36154;51.674;7.824;2023-08-17T04:35:18;101088.16;;;25.09;50.80
48872;BME280;36154;51.674;7.824;2023-08-17T04:37:43;101091.72;;;25.08;50.37
48872;BME280;36154;51.674;7.824;2023-08-17T04:40:09;101097.69;;;25.10;50.43
48872;BME280;36154;51.674;7.824;2023-08-17T04:42:35;101094.38;;;25.06;50.91
48872;BME280;36154;51.674;7.824;2023-08-17T04:45:00;101095.09;;;25.10;50.71
48872;BME280;36154;51.674;7.824;2023-08-17T04:47:26;101087.28;;;25.10;50.86
48872;BME280;36154;51.674;7.824;2023-08-17T04:49:51;101076.00;;;25.09;50.79
48872;BME280;36154;51.674;7.824;2023-08-17T04:52:16;101080.34;;;25.09;50.67
48872;BME280;36154;51.674;7.824;2023-08-17T04:54:42;101085.63;;;25.07;50.84
48872;BME280;36154;51.674;7.824;2023-08-17T04:57:07;101077.84;;;25.06;50.42
48872;BME280;36154;51.674;7.824;2023-08-17T04:59:32;101077.03;;;25.05;50.81
48872;BME280;36154;51.674;7.824;2023-08-17T05:01:57;101078.72;;;25.06;50.52
48872;BME280;36154;51.674;7.824;2023-08-17T05:04:23;101072.66;;;25.06;50.48
48872;BME280;36154;51.674;7.824;2023-08-17T05:06:48;101081.34;;;25.06;50.69
48872;BME280;36154;51.674;7.824;2023-08-17T05:09:13;101070.84;;;25.08;50.44
48872;BME280;36154;51.674;7.824;2023-08-17T05:11:38;101076.06;;;25.08;50.65
48872;BME280;36154;51.674;7.824;2023-08-17T05:14:04;101075.19;;;25.07;50.86
48872;BME280;36154;51.674;7.824;2023-08-17T05:16:29;101091.72;;;25.08;50.79
48872;BME280;36154;51.674;7.824;2023-08-17T05:18:54;101084.78;;;25.07;50.82
48872;BME280;36154;51.674;7.824;2023-08-17T05:21:23;101083.94;;;25.06;50.55
48872;BME280;36154;51.674;7.824;2023-08-17T05:23:48;101082.19;;;25.07;50.66
48872;BME280;36154;51.674;7.824;2023-08-17T05:26:14;101084.78;;;25.07;50.51
48872;BME280;36154;51.674;7.824;2023-08-17T05:28:39;101100.44;;;25.07;50.45
48872;BME280;36154;51.674;7.824;2023-08-17T05:31:08;101091.72;;;25.08;50.60
48872;BME280;36154;51.674;7.824;2023-08-17T05:33:33;101100.38;;;25.08;50.54
48872;BME280;36154;51.674;7.824;2023-08-17T05:35:59;101108.19;;;25.08;50.83
48872;BME280;36154;51.674;7.824;2023-08-17T05:38:25;101109.91;;;25.09;50.70
48872;BME280;36154;51.674;7.824;2023-08-17T05:40:57;101106.41;;;25.09;50.86
48872;BME280;36154;51.674;7.824;2023-08-17T05:43:23;101112.50;;;25.09;50.49
48872;BME280;36154;51.674;7.824;2023-08-17T05:45:49;101109.91;;;25.09;50.47
48872;BME280;36154;51.674;7.824;2023-08-17T05:48:14;101110.75;;;25.10;50.58
48872;BME280;36154;51.674;7.824;2023-08-17T05:50:43;101113.41;;;25.08;50.65
48872;BME280;36154;51.674;7.824;2023-08-17T05:53:08;101128.09;;;25.11;50.27
48872;BME280;36154;51.674;7.824;2023-08-17T05:55:34;101118.50;;;25.12;50.43
48872;BME280;36154;51.674;7.824;2023-08-17T05:57:59;101118.50;;;25.12;50.52
48872;BME280;36154;51.674;7.824;2023-08-17T06:00:25;101114.19;;;25.10;50.47
48872;BME280;36154;51.674;7.824;2023-08-17T06:02:50;101114.19;;;25.10;50.41
48872;BME280;36154;51.674;7.824;2023-08-17T06:05:17;101113.34;;;25.10;50.74
48872;BME280;36154;51.674;7.824;2023-08-17T06:07:42;101115.06;;;25.11;50.68
48872;BME280;36154;51.674;7.824;2023-08-17T06:10:08;101106.34;;;25.10;50.89
48872;BME280;36154;51.674;7.824;2023-08-17T06:12:34;101106.34;;;25.10;50.06
48872;BME280;36154;51.674;7.824;2023-08-17T06:15:00;101113.28;;;25.12;50.78
48872;BME280;36154;51.674;7.824;2023-08-17T06:17:26;101114.19;;;25.10;50.38
48872;BME280;36154;51.674;7.824;2023-08-17T06:19:51;101102.03;;;25.11;50.42
48872;BME280;36154;51.674;7.824;2023-08-17T06:22:16;101107.22;;;25.11;50.32
48872;BME280;36154;51.674;7.824;2023-08-17T06:24:41;101103.81;;;25.09;50.83
48872;BME280;36154;51.674;7.824;2023-08-17T06:27:07;101107.28;;;25.09;50.81
48872;BME280;36154;51.674;7.824;2023-08-17T06:29:32;101111.56;;;25.10;50.80
48872;BME280;36154;51.674;7.824;2023-08-17T06:31:57;101109.91;;;25.09;50.37
48872;BME280;36154;51.674;7.824;2023-08-17T06:34:22;101106.34;;;25.10;50.79
48872;BME280;36154;51.674;7.824;2023-08-17T06:37:02;101111.56;;;25.10;50.39
48872;BME280;36154;51.674;7.824;2023-08-17T06:39:28;101113.28;;;25.12;50.44
48872;BME280;36154;51.674;7.824;2023-08-17T06:41:54;101115.06;;;25.11;50.65
48872;BME280;36154;51.674;7.824;2023-08-17T06:44:19;101118.50;;;25.12;50.36
48872;BME280;36154;51.674;7.824;2023-08-17T06:46:44;101113.28;;;25.12;50.74
48872;BME280;36154;51.674;7.824;2023-08-17T06:49:11;101106.34;;;25.10;50.84
48872;BME280;36154;51.674;7.824;2023-08-17T06:51:37;101104.63;;;25.11;50.47
48872;BME280;36154;51.674;7.824;2023-08-17T06:54:03;101102.84;;;25.12;50.79
48872;BME280;36154;51.674;7.824;2023-08-17T06:56:28;101110.69;;;25.12;50.91
48872;BME280;36154;51.674;7.824;2023-08-17T06:58:55;101107.13;;;25.13;50.45
48872;BME280;36154;51.674;7.824;2023-08-17T07:01:21;101104.53;;;25.13;50.88
48872;BME280;36154;51.674;7.824;2023-08-17T07:03:46;101112.44;;;25.11;50.50
48872;BME280;36154;51.674;7.824;2023-08-17T07:06:12;101112.44;;;25.11;50.47
48872;BME280;36154;51.674;7.824;2023-08-17T07:08:38;101114.19;;;25.10;50.80
48872;BME280;36154;51.674;7.824;2023-08-17T07:11:04;101123.72;;;25.12;50.49
48872;BME280;36154;51.674;7.824;2023-08-17T07:13:31;101111.50;;;25.12;50.47
48872;BME280;36154;51.674;7.824;2023-08-17T07:15:56;101116.78;;;25.10;50.77
48872;BME280;36154;51.674;7.824;2023-08-17T07:18:21;101114.97;;;25.13;50.47
48872;BME280;36154;51.674;7.824;2023-08-17T07:20:46;101125.38;;;25.13;50.40
48872;BME280;36154;51.674;7.824;2023-08-17T07:23:12;101131.47;;;25.13;50.63
48872;BME280;36154;51.674;7.824;2023-08-17T07:25:37;101134.09;;;25.13;50.59
48872;BME280;36154;51.674;7.824;2023-08-17T07:28:03;101132.31;;;25.14;50.63
48872;BME280;36154;51.674;7.824;2023-08-17T07:30:28;101136.69;;;25.13;50.38
48872;BME280;36154;51.674;7.824;2023-08-17T07:32:53;101133.16;;;25.14;50.75
48872;BME280;36154;51.674;7.824;2023-08-17T07:35:19;101134.94;;;25.14;50.77
48872;BME280;36154;51.674;7.824;2023-08-17T07:37:44;101136.69;;;25.13;50.84
48872;BME280;36154;51.674;7.824;2023-08-17T07:40:09;101141.03;;;25.13;50.42
48872;BME280;36154;51.674;7.824;2023-08-17T07:42:36;101137.59;;;25.12;50.80
48872;BME280;36154;51.674;7.824;2023-08-17T07:45:02;101137.53;;;25.14;50.79
48872;BME280;36154;51.674;7.824;2023-08-17T07:47:31;101141.97;;;25.12;50.53
48872;BME280;36154;51.674;7.824;2023-08-17T07:49:56;101139.31;;;25.13;50.96
48872;BME280;36154;51.674;7.824;2023-08-17T07:52:23;101142.75;;;25.14;50.99
48872;BME280;36154;51.674;7.824;2023-08-17T07:54:48;101150.56;;;25.14;50.92
48872;BME280;36154;51.674;7.824;2023-08-17T07:57:13;101151.41;;;25.14;50.57
48872;BME280;36154;51.674;7.824;2023-08-17T07:59:39;101139.34;;;25.12;50.94
48872;BME280;36154;51.674;7.824;2023-08-17T08:02:04;101141.03;;;25.13;51.21
48872;BME280;36154;51.674;7.824;2023-08-17T08:04:29;101140.13;;;25.14;50.89
48872;BME280;36154;51.674;7.824;2023-08-17T08:06:54;101137.53;;;25.14;50.99
48872;BME280;36154;51.674;7.824;2023-08-17T08:09:20;101140.13;;;25.14;51.08
48872;BME280;36154;51.674;7.824;2023-08-17T08:11:46;101147.97;;;25.14;50.93
48872;BME280;36154;51.674;7.824;2023-08-17T08:14:11;101149.66;;;25.15;51.07
48872;BME280;36154;51.674;7.824;2023-08-17T08:16:37;101149.66;;;25.15;51.20
48872;BME280;36154;51.674;7.824;2023-08-17T08:19:02;101156.56;;;25.16;50.99
48872;BME280;36154;51.674;7.824;2023-08-17T08:21:27;101161.78;;;25.16;51.24
48872;BME280;36154;51.674;7.824;2023-08-17T08:23:53;101158.28;;;25.17;51.69
48872;BME280;36154;51.674;7.824;2023-08-17T08:26:18;101163.50;;;25.17;51.10
48872;BME280;36154;51.674;7.824;2023-08-17T08:28:44;101159.97;;;25.18;51.24
48872;BME280;36154;51.674;7.824;2023-08-17T08:31:10;101166.03;;;25.18;51.08
48872;BME280;36154;51.674;7.824;2023-08-17T08:33:35;101170.41;;;25.18;50.89
48872;BME280;36154;51.674;7.824;2023-08-17T08:36:00;101165.19;;;25.18;51.17
48872;BME280;36154;51.674;7.824;2023-08-17T08:38:26;101160.75;;;25.20;51.16
48872;BME280;36154;51.674;7.824;2023-08-17T08:40:52;101161.66;;;25.19;51.43
48872;BME280;36154;51.674;7.824;2023-08-17T08:43:18;101156.44;;;25.19;51.18
48872;BME280;36154;51.674;7.824;2023-08-17T08:45:43;101151.22;;;25.19;50.92
48872;BME280;36154;51.674;7.824;2023-08-17T08:48:13;101155.56;;;25.20;50.90
48872;BME280;36154;51.674;7.824;2023-08-17T08:50:40;101154.63;;;25.21;51.17
48872;BME280;36154;51.674;7.824;2023-08-17T08:53:19;101155.56;;;25.20;50.95
48872;BME280;36154;51.674;7.824;2023-08-17T08:56:03;101150.41;;;25.18;51.30
48872;BME280;36154;51.674;7.824;2023-08-17T08:58:31;101147.78;;;25.18;51.09
48872;BME280;36154;51.674;7.824;2023-08-17T09:00:58;101146.84;;;25.19;51.10
48872;BME280;36154;51.674;7.824;2023-08-17T09:03:25;101144.19;;;25.21;51.25
48872;BME280;36154;51.674;7.824;2023-08-17T09:05:50;101144.19;;;25.21;51.34
48872;BME280;36154;51.674;7.824;2023-08-17T09:08:21;101139.84;;;25.21;51.06
48872;BME280;36154;51.674;7.824;2023-08-17T09:10:47;101140.75;;;25.20;51.12
48872;BME280;36154;51.674;7.824;2023-08-17T09:13:13;101151.13;;;25.22;50.88
48872;BME280;36154;51.674;7.824;2023-08-17T09:15:38;101151.94;;;25.22;51.01
48872;BME280;36154;51.674;7.824;2023-08-17T09:18:05;101157.22;;;25.21;51.36
48872;BME280;36154;51.674;7.824;2023-08-17T09:20:44;101156.31;;;25.22;51.09
48872;BME280;36154;51.674;7.824;2023-08-17T09:23:16;101155.50;;;25.21;51.18
48872;BME280;36154;51.674;7.824;2023-08-17T09:25:44;101157.16;;;25.22;51.16
48872;BME280;36154;51.674;7.824;2023-08-17T09:28:12;101153.72;;;25.22;51.20
48872;BME280;36154;51.674;7.824;2023-08-17T09:30:58;101144.19;;;25.21;51.48
48872;BME280;36154;51.674;7.824;2023-08-17T09:33:26;101134.63;;;25.21;51.35
48872;BME280;36154;51.674;7.824;2023-08-17T09:35:53;101138.06;;;25.22;51.41
48872;BME280;36154;51.674;7.824;2023-08-17T09:38:19;101135.47;;;25.22;51.42
48872;BME280;36154;51.674;7.824;2023-08-17T09:40:45;101137.19;;;25.23;51.64
48872;BME280;36154;51.674;7.824;2023-08-17T09:43:11;101139.72;;;25.24;51.47
48872;BME280;36154;51.674;7.824;2023-08-17T09:45:39;101134.50;;;25.24;51.58
48872;BME280;36154;51.674;7.824;2023-08-17T09:48:08;101140.56;;;25.25;51.45
48872;BME280;36154;51.674;7.824;2023-08-17T09:50:34;101137.03;;;25.26;51.75
48872;BME280;36154;51.674;7.824;2023-08-17T09:53:02;101138.72;;;25.27;51.74
48872;BME280;36154;51.674;7.824;2023-08-17T09:55:30;101133.56;;;25.25;51.43
48872;BME280;36154;51.674;7.824;2023-08-17T09:57:57;101131.81;;;25.26;51.27
48872;BME280;36154;51.674;7.824;2023-08-17T10:00:22;101124.91;;;25.25;51.24
48872;BME280;36154;51.674;7.824;2023-08-17T10:02:50;101126.59;;;25.26;51.40
48872;BME280;36154;51.674;7.824;2023-08-17T10:05:19;101128.34;;;25.25;51.66
48872;BME280;36154;51.674;7.824;2023-08-17T10:07:53;101130.91;;;25.27;51.67
48872;BME280;36154;51.674;7.824;2023-08-17T10:10:25;101140.44;;;25.28;51.85
48872;BME280;36154;51.674;7.824;2023-08-17T10:13:04;101137.84;;;25.28;51.73
48872;BME280;36154;51.674;7.824;2023-08-17T10:15:35;101143.81;;;25.30;51.63
48872;BME280;36154;51.674;7.824;2023-08-17T10:18:44;101133.41;;;25.30;52.09
48872;BME280;36154;51.674;7.824;2023-08-17T10:21:21;101133.28;;;25.33;52.11
48872;BME280;36154;51.674;7.824;2023-08-17T10:23:48;101138.56;;;25.32;52.34
48872;BME280;36154;51.674;7.824;2023-08-17T10:26:13;101138.50;;;25.33;52.57
48872;BME280;36154;51.674;7.824;2023-08-17T10:28:40;101139.28;;;25.35;52.81
48872;BME280;36154;51.674;7.824;2023-08-17T10:31:05;101141.88;;;25.35;52.53
48872;BME280;36154;51.674;7.824;2023-08-17T10:33:32;101134.81;;;25.37;52.65
48872;BME280;36154;51.674;7.824;2023-08-17T10:36:00;101136.53;;;25.38;52.58
48872;BME280;36154;51.674;7.824;2023-08-17T10:38:28;101136.47;;;25.40;52.57
48872;BME280;36154;51.674;7.824;2023-08-17T10:41:14;101138.28;;;25.38;52.14
48872;BME280;36154;51.674;7.824;2023-08-17T10:46:20;101140.31;;;25.31;52.12
48872;BME280;36154;51.674;7.824;2023-08-17T10:48:45;101147.41;;;25.27;52.33
48872;BME280;36154;51.674;7.824;2023-08-17T10:51:11;101147.72;;;25.20;52.33
48872;BME280;36154;51.674;7.824;2023-08-17T10:53:43;101146.41;;;25.09;52.46
48872;BME280;36154;51.674;7.824;2023-08-17T10:56:11;101148.47;;;25.01;52.59
48872;BME280;36154;51.674;7.824;2023-08-17T10:58:37;101140.06;;;24.93;52.98
48872;BME280;36154;51.674;7.824;2023-08-17T11:01:02;101145.50;;;24.87;52.81
48872;BME280;36154;51.674;7.824;2023-08-17T11:03:28;101145.81;;;24.79;53.15
48872;BME280;36154;51.674;7.824;2023-08-17T11:05:57;101138.19;;;24.74;53.28
48872;BME280;36154;51.674;7.824;2023-08-17T11:08:34;101139.19;;;24.70;53.37
48872;BME280;36154;51.674;7.824;2023-08-17T11:11:04;101136.69;;;24.67;53.49
48872;BME280;36154;51.674;7.824;2023-08-17T11:13:33;101134.09;;;24.67;53.57
48872;BME280;36154;51.674;7.824;2023-08-17T11:15:59;101143.56;;;24.70;53.46
48872;BME280;36154;51.674;7.824;2023-08-17T11:18:25;101143.63;;;24.68;53.58
48872;BME280;36154;51.674;7.824;2023-08-17T11:20:50;101141.13;;;24.65;53.81
48872;BME280;36154;51.674;7.824;2023-08-17T11:23:17;101140.22;;;24.66;53.90
48872;BME280;36154;51.674;7.824;2023-08-17T11:25:42;101141.00;;;24.68;53.89
48872;BME280;36154;51.674;7.824;2023-08-17T11:28:08;101133.03;;;24.73;53.57
48872;BME280;36154;51.674;7.824;2023-08-17T11:30:35;101135.44;;;24.78;53.37
48872;BME280;36154;51.674;7.824;2023-08-17T11:33:02;101130.09;;;24.81;53.79
48872;BME280;36154;51.674;7.824;2023-08-17T11:35:28;101128.25;;;24.84;53.62
48872;BME280;36154;51.674;7.824;2023-08-17T11:37:53;101134.19;;;24.88;53.38
48872;BME280;36154;51.674;7.824;2023-08-17T11:40:18;101131.47;;;24.91;53.55
48872;BME280;36154;51.674;7.824;2023-08-17T11:42:45;101127.91;;;24.92;53.35
48872;BME280;36154;51.674;7.824;2023-08-17T11:45:11;101127.84;;;24.95;53.67
48872;BME280;36154;51.674;7.824;2023-08-17T11:47:44;101129.56;;;24.96;53.44
48872;BME280;36154;51.674;7.824;2023-08-17T11:50:11;101123.41;;;24.97;53.24
48872;BME280;36154;51.674;7.824;2023-08-17T11:52:37;101122.38;;;25.01;53.11
48872;BME280;36154;51.674;7.824;2023-08-17T11:55:04;101125.78;;;25.03;53.26
48872;BME280;36154;51.674;7.824;2023-08-17T11:57:33;101123.94;;;25.05;53.50
48872;BME280;36154;51.674;7.824;2023-08-17T12:00:00;101129.94;;;25.07;53.18
48872;BME280;36154;51.674;7.824;2023-08-17T12:02:26;101128.16;;;25.09;53.41
48872;BME280;36154;51.674;7.824;2023-08-17T12:04:53;101116.78;;;25.10;53.00
48872;BME280;36154;51.674;7.824;2023-08-17T12:07:19;101127.16;;;25.12;52.81
48872;BME280;36154;51.674;7.824;2023-08-17T12:09:48;101122.72;;;25.14;52.96
48872;BME280;36154;51.674;7.824;2023-08-17T12:12:17;101125.28;;;25.16;53.21
48872;BME280;36154;51.674;7.824;2023-08-17T12:14:43;101126.00;;;25.19;53.24
48872;BME280;36154;51.674;7.824;2023-08-17T12:17:16;101123.31;;;25.21;53.00
48872;BME280;36154;51.674;7.824;2023-08-17T12:19:42;101118.03;;;25.22;53.05
48872;BME280;36154;51.674;7.824;2023-08-17T12:22:08;101121.47;;;25.24;53.11
48872;BME280;36154;51.674;7.824;2023-08-17T12:24:33;101128.41;;;25.24;52.85
48872;BME280;36154;51.674;7.824;2023-08-17T12:27:01;101127.47;;;25.26;53.28
48872;BME280;36154;51.674;7.824;2023-08-17T12:29:27;101130.91;;;25.27;53.22
48872;BME280;36154;51.674;7.824;2023-08-17T12:31:52;101136.06;;;25.28;52.86
48872;BME280;36154;51.674;7.824;2023-08-17T12:34:17;101139.44;;;25.31;52.96
48872;BME280;36154;51.674;7.824;2023-08-17T12:36:43;101132.50;;;25.31;53.20
48872;BME280;36154;51.674;7.824;2023-08-17T12:39:09;101137.72;;;25.31;53.06
48872;BME280;36154;51.674;7.824;2023-08-17T12:41:34;101127.19;;;25.33;52.84
48872;BME280;36154;51.674;7.824;2023-08-17T12:43:59;101134.06;;;25.35;52.75
48872;BME280;36154;51.674;7.824;2023-08-17T12:46:26;101128.00;;;25.35;52.88
48872;BME280;36154;51.674;7.824;2023-08-17T12:48:51;101127.94;;;25.36;53.14
48872;BME280;36154;51.674;7.824;2023-08-17T12:51:16;101123.56;;;25.37;53.00
48872;BME280;36154;51.674;7.824;2023-08-17T12:53:42;101122.63;;;25.38;53.00